createdAt,value
2019-04-22T00:02:26.446Z,42.2
2019-04-22T00:07:47.763Z,42
2019-04-22T00:12:46.735Z,42
2019-04-22T00:17:44.593Z,42.6
2019-04-22T00:22:37.896Z,42.9
2019-04-22T00:32:30.160Z,43.1
2019-04-22T00:37:28.160Z,43.2
2019-04-22T00:42:27.300Z,43.5
2019-04-22T00:47:27.731Z,43.4
2019-04-22T00:52:15.315Z,43.8
2019-04-22T00:57:15.208Z,43.9
2019-04-22T01:02:20.047Z,44.3
2019-04-22T01:07:11.121Z,44.5
2019-04-22T01:12:13.324Z,44.9
2019-04-22T01:17:05.841Z,44.6
2019-04-22T01:21:57.540Z,45.1
2019-04-22T01:26:53.370Z,45.9
2019-04-22T01:31:36.243Z,45.8
2019-04-22T01:36:47.251Z,45.6
2019-04-22T01:41:59.591Z,45
2019-04-22T01:46:48.937Z,45.1
2019-04-22T01:56:46.512Z,45.2
2019-04-22T02:01:43.436Z,45.6
2019-04-22T02:06:41.942Z,45.1
2019-04-22T02:11:38.719Z,45.1
2019-04-22T02:16:33.530Z,45.1
2019-04-22T02:21:28.020Z,45.4
2019-04-22T02:26:25.173Z,45.8
2019-04-22T02:31:35.510Z,45.8
2019-04-22T02:41:25.943Z,45
2019-04-22T02:51:16.145Z,45.1
2019-04-22T02:56:22.535Z,45.2
2019-04-22T03:01:13.222Z,45.1
2019-04-22T03:06:15.218Z,45.6
2019-04-22T03:11:12.327Z,45.9
2019-04-22T03:16:07.405Z,45.9
2019-04-22T03:20:57.660Z,46.2
2019-04-22T03:31:02.891Z,45.7
2019-04-22T03:36:04.233Z,45.6
2019-04-22T03:40:45.969Z,45.5
2019-04-22T03:50:42.150Z,45.5
2019-04-22T03:55:42.939Z,45.8
2019-04-22T04:05:37.132Z,46
2019-04-22T04:15:29.765Z,46.8
2019-04-22T04:25:26.420Z,47.3
2019-04-22T04:35:29.789Z,46.7
2019-04-22T04:45:31.544Z,46.9
2019-04-22T05:09:51.375Z,46.5
2019-04-22T05:14:45.957Z,46.6
2019-04-22T05:19:56.435Z,46.5
2019-04-22T05:24:34.241Z,45.6
2019-04-22T05:29:35.903Z,45.7
2019-04-22T05:34:27.852Z,45.6
2019-04-22T05:39:20.871Z,45.7
2019-04-22T05:44:29.263Z,45.1
2019-04-22T05:49:17.599Z,45.1
2019-04-22T05:54:20.741Z,44.7
2019-04-22T05:59:30.607Z,44.5
2019-04-22T06:04:09.437Z,44.2
2019-04-22T06:09:24.145Z,44.6
2019-04-22T06:14:00.760Z,43.9
2019-04-22T06:19:02.543Z,43.9
2019-04-22T06:24:04.458Z,43.5
2019-04-22T06:28:53.085Z,43.1
2019-04-22T06:33:54.247Z,43.1
2019-04-22T06:38:44.706Z,42.6
2019-04-22T06:43:51.335Z,42.6
2019-04-22T06:48:39.395Z,42.4
2019-04-22T06:53:40.325Z,42.3
2019-04-22T06:58:34.448Z,42.3
2019-04-22T07:03:41.327Z,42
2019-04-22T07:13:27.015Z,42.2
2019-04-22T07:18:29.580Z,42.2
2019-04-22T07:23:32.910Z,41.8
2019-04-22T07:28:15.434Z,41.9
2019-04-22T07:33:18.642Z,41.6
2019-04-22T07:38:17.372Z,41
2019-04-22T07:43:11.400Z,39.9
2019-04-22T07:48:18.645Z,39.6
2019-04-22T07:53:04.299Z,39.4
2019-04-22T07:57:58.089Z,39.5
2019-04-22T08:02:58.901Z,38.9
2019-04-22T08:07:58.680Z,39
2019-04-22T08:12:50.453Z,38
2019-04-22T08:17:54.579Z,37.8
2019-04-22T08:22:50.378Z,37.6
2019-04-22T08:27:42.618Z,37.2
2019-04-22T08:32:40.777Z,36.9
2019-04-22T08:37:47.249Z,36.6
2019-04-22T08:42:42.730Z,36.3
2019-04-22T08:52:27.100Z,36.3
2019-04-22T08:57:34.421Z,36.3
2019-04-22T09:02:25.603Z,35.8
2019-04-22T09:07:27.922Z,35.6
2019-04-22T09:12:23.350Z,35.3
2019-04-22T09:17:14.525Z,35.3
2019-04-22T09:22:10.841Z,35.1
2019-04-22T09:27:09.938Z,34.8
2019-04-22T09:37:11.441Z,34.6
2019-04-22T09:41:56.909Z,34.2
2019-04-22T09:46:59.492Z,34
2019-04-22T09:51:51.821Z,33.1
2019-04-22T09:56:48.891Z,32.7
2019-04-22T10:01:56.699Z,32.7
2019-04-22T10:06:40.182Z,31.3
2019-04-22T10:16:43.423Z,30.8
2019-04-22T10:21:44.075Z,30.4
2019-04-22T10:31:36.734Z,29.6
2019-04-22T10:36:05.777Z,29.7
2019-04-22T10:41:03.002Z,29.4
2019-04-22T10:45:59.920Z,29.5
2019-04-22T10:50:56.868Z,28.6
2019-04-22T10:55:54.348Z,28
2019-04-22T11:00:52.236Z,27.8
2019-04-22T11:05:50.573Z,28
2019-04-22T11:11:00.037Z,28.2
2019-04-22T11:15:44.613Z,27.4
2019-04-22T11:20:41.854Z,26.2
2019-04-22T11:25:39.537Z,25.2
2019-04-22T11:30:36.668Z,24.7
2019-04-22T11:35:34.024Z,25.2
2019-04-22T11:40:37.771Z,24.7
2019-04-22T11:45:29.089Z,24.7
2019-04-22T11:50:24.188Z,24.7
2019-04-22T11:55:20.647Z,24.7
2019-04-22T12:00:18.705Z,23.5
2019-04-22T12:05:15.888Z,23.2
2019-04-22T12:10:22.737Z,22.7
2019-04-22T12:15:10.818Z,22.1
2019-04-22T12:20:10.213Z,22.9
2019-04-22T12:25:06.256Z,23
2019-04-22T12:30:02.953Z,22.9
2019-04-22T12:34:59.883Z,22.9
2019-04-22T12:39:58.252Z,22.5
2019-04-22T12:44:54.403Z,22.4
2019-04-22T12:49:55.223Z,22.3
2019-04-22T12:54:49.025Z,23.1
2019-04-22T12:59:45.761Z,22.9
2019-04-22T13:04:43.477Z,23.5
2019-04-22T13:09:41.101Z,23.4
2019-04-22T13:14:36.984Z,23.6
2019-04-22T13:19:34.343Z,23.3
2019-04-22T13:24:32.067Z,25.7
2019-04-22T13:29:29.070Z,23.3
2019-04-22T13:34:33.076Z,23.4
2019-04-22T13:39:23.355Z,23.6
2019-04-22T13:44:21.029Z,23.4
2019-04-22T13:49:49.209Z,24
2019-04-22T13:59:22.883Z,24.8
2019-04-22T14:04:10.247Z,25.7
2019-04-22T14:09:07.410Z,26.4
2019-04-22T14:14:05.038Z,26.6
2019-04-22T14:19:00.528Z,26.7
2019-04-22T14:23:58.495Z,26.8
2019-04-22T14:28:55.671Z,26.6
2019-04-22T14:33:55.667Z,26.4
2019-04-22T14:38:50.125Z,27.2
2019-04-22T14:44:44.837Z,27.7
2019-04-22T14:49:02.489Z,27.9
2019-04-22T14:53:55.056Z,28.7
2019-04-22T14:58:37.704Z,28.7
2019-04-22T15:03:38.113Z,29
2019-04-22T15:08:32.969Z,29
2019-04-22T15:13:29.512Z,29.2
2019-04-22T15:18:28.293Z,29.5
2019-04-22T15:23:24.788Z,29.5
2019-04-22T15:28:21.860Z,29.9
2019-04-22T15:33:19.393Z,30.3
2019-04-22T15:38:15.534Z,30.8
2019-04-22T15:43:10.994Z,31.1
2019-04-22T15:48:08.267Z,31.4
2019-04-22T15:53:04.912Z,31.7
2019-04-22T15:58:01.840Z,32
2019-04-22T16:02:59.354Z,32.4
2019-04-22T16:07:55.068Z,32.8
2019-04-22T16:12:57.145Z,32.8
2019-04-22T16:17:48.965Z,33.1
2019-04-22T16:22:47.675Z,33.4
2019-04-22T16:27:44.762Z,33.6
2019-04-22T16:32:41.659Z,34.1
2019-04-22T16:37:38.964Z,34.5
2019-04-22T16:42:42.725Z,34.9
2019-04-22T16:47:33.363Z,35.3
2019-04-22T16:52:30.306Z,35.3
2019-04-22T16:57:28.099Z,35.4
2019-04-22T17:02:24.581Z,35.4
2019-04-22T17:07:22.352Z,35.5
2019-04-22T17:12:19.446Z,35.5
2019-04-22T17:17:15.099Z,35.8
2019-04-22T17:22:13.317Z,36.1
2019-04-22T17:27:10.577Z,36.3
2019-04-22T17:32:11.669Z,36.5
2019-04-22T17:37:11.196Z,36.8
2019-04-22T17:42:22.009Z,36.6
2019-04-22T17:47:16.159Z,36.5
2019-04-22T17:52:16.709Z,36.6
2019-04-22T17:57:09.169Z,37
2019-04-22T18:02:06.355Z,37.4
2019-04-22T18:07:11.902Z,38.1
2019-04-22T18:12:11.383Z,38.5
2019-04-22T18:16:59.996Z,38.7
2019-04-22T18:21:51.465Z,38.8
2019-04-22T18:26:53.025Z,38.8
2019-04-22T18:31:41.731Z,38.8
2019-04-22T18:36:40.221Z,38.8
2019-04-22T18:41:43.755Z,39
2019-04-22T18:46:40.501Z,39
2019-04-22T18:51:42.088Z,39.2
2019-04-22T18:56:32.223Z,39.3
2019-04-22T19:01:12.879Z,39.3
2019-04-22T19:06:45.820Z,39.4
2019-04-22T19:11:25.570Z,39.8
2019-04-22T19:16:39.379Z,39.9
2019-04-22T19:21:19.129Z,40.1
2019-04-22T19:26:29.892Z,40.4
2019-04-22T19:31:18.617Z,40.7
2019-04-22T19:36:14.152Z,41.5
2019-04-22T19:41:19.329Z,41.9
2019-04-22T19:46:07.034Z,42.5
2019-04-22T19:51:08.748Z,42.8
2019-04-22T19:55:59.585Z,43.3
2019-04-22T20:00:50.565Z,43.6
2019-04-22T20:05:59.051Z,43.8
2019-04-22T20:10:49.867Z,44.1
2019-04-22T20:15:43.172Z,44.5
2019-04-22T20:20:52.405Z,44.8
2019-04-22T20:25:40.540Z,45
2019-04-22T20:30:39.340Z,45.4
2019-04-22T20:35:38.568Z,45.6
2019-04-22T20:40:33.001Z,45.9
2019-04-22T20:45:34.653Z,46.1
2019-04-22T20:50:28.910Z,46.2
2019-04-22T20:55:18.990Z,46.4
2019-04-22T21:00:19.489Z,46.3
2019-04-22T21:05:16.603Z,46.5
2019-04-22T21:10:15.483Z,46.6
2019-04-22T21:15:19.204Z,46.7
2019-04-22T21:20:17.056Z,46.8
2019-04-22T21:25:05.763Z,46.8
2019-04-22T21:30:01.462Z,46.9
2019-04-22T21:35:05.512Z,46.9
2019-04-22T21:39:56.146Z,46.9
2019-04-22T21:44:55.521Z,47
2019-04-22T21:50:11.030Z,47
2019-04-22T21:54:58.906Z,46.8
2019-04-22T21:59:50.858Z,46.8
2019-04-22T22:04:43.993Z,46.7
2019-04-22T22:09:42.736Z,46.8
2019-04-22T22:14:37.929Z,46.7
2019-04-22T22:19:37.620Z,46.6
2019-04-22T22:24:37.961Z,46.3
2019-04-22T22:29:42.901Z,46.2
2019-04-22T22:34:26.405Z,46.1
2019-04-22T22:39:19.262Z,46
2019-04-22T22:44:13.979Z,45.4
2019-04-22T22:49:22.741Z,45.2
2019-04-22T22:54:17.369Z,45.2
2019-04-22T22:59:13.976Z,45
2019-04-22T23:04:16.002Z,45.1
2019-04-22T23:09:09.210Z,45.1
2019-04-22T23:14:06.761Z,44.8
2019-04-22T23:18:43.747Z,44.7
2019-04-22T23:23:57.251Z,44.8
2019-04-22T23:28:48.332Z,44.7
2019-04-22T23:33:46.165Z,44.7
2019-04-22T23:38:50.326Z,44.7
2019-04-22T23:43:48.279Z,44.5
2019-04-22T23:48:33.370Z,44.7
